Time;durP1;ratioP1;P1;durP2;ratioP2;P2;SDS_P1;SDS_P2;PMS_P1;PMS_P2;Temp;Humidity;BMP_temperature;BMP_pressure;BME280_temperature;BME280_humidity;BME280_pressure;Samples;Min_cycle;Max_cycle;Signal;HPM_P1;HPM_P2
2021/10/14 04:42:52;;;;;;;95.80;36.03;;;;;;;11.85;100.00;102383.41;2608134;36;20141;-64
2021/10/14 04:45:20;;;;;;;104.15;38.67;;;;;;;11.86;100.00;102389.66;2601689;31;20639;-64
2021/10/14 04:47:48;;;;;;;99.03;38.85;;;;;;;11.87;100.00;102386.00;2602170;36;20181;-64
2021/10/14 04:50:16;;;;;;;90.38;39.17;;;;;;;11.92;100.00;102389.22;2600545;36;20157;-64
2021/10/14 04:52:45;;;;;;;90.22;37.50;;;;;;;11.87;100.00;102391.38;2601020;36;20114;-64
2021/10/14 04:55:13;;;;;;;99.20;38.85;;;;;;;11.91;100.00;102391.06;2601965;36;20541;-64
2021/10/14 04:57:41;;;;;;;101.03;39.55;;;;;;;11.95;100.00;102386.34;2602335;36;20556;-64
2021/10/14 05:00:14;;;;;;;99.47;38.45;;;;;;;11.87;100.00;102384.16;2602073;36;20030;-64
2021/10/14 05:02:42;;;;;;;107.65;41.40;;;;;;;11.90;100.00;102388.47;2601488;36;20034;-64
2021/10/14 05:05:11;;;;;;;108.07;40.72;;;;;;;11.91;100.00;102385.66;2600591;36;20034;-64
2021/10/14 05:07:39;;;;;;;109.40;40.42;;;;;;;11.90;100.00;102383.94;2601132;36;20027;-64
2021/10/14 05:10:08;;;;;;;106.82;41.05;;;;;;;11.91;100.00;102382.09;2600966;36;20054;-64
2021/10/14 05:12:37;;;;;;;111.63;42.63;;;;;;;11.89;100.00;102384.03;2600664;36;20709;-64
2021/10/14 05:15:08;;;;;;;106.75;39.60;;;;;;;11.88;100.00;102379.59;2601550;36;20565;-64
2021/10/14 05:17:39;;;;;;;114.65;42.92;;;;;;;11.88;100.00;102374.22;2601291;36;20046;-64
2021/10/14 05:20:09;;;;;;;102.70;39.95;;;;;;;11.96;100.00;102373.72;2602178;36;20052;-64
2021/10/14 05:22:37;;;;;;;110.60;41.35;;;;;;;11.88;100.00;102375.09;2602273;36;20173;-64
2021/10/14 05:25:07;;;;;;;104.50;40.00;;;;;;;11.92;100.00;102370.31;2601522;36;20043;-64
2021/10/14 05:27:35;;;;;;;108.75;40.30;;;;;;;11.90;100.00;102366.88;2601616;31;20157;-64
2021/10/14 05:30:03;;;;;;;112.82;42.22;;;;;;;11.87;100.00;102367.97;2603725;36;20142;-64
2021/10/14 05:32:31;;;;;;;115.63;41.83;;;;;;;11.86;100.00;102366.22;2604929;36;20027;-64
2021/10/14 05:35:02;;;;;;;111.47;42.50;;;;;;;11.90;100.00;102361.50;2601279;36;20053;-64
2021/10/14 05:37:31;;;;;;;124.10;43.20;;;;;;;11.88;100.00;102364.28;2605815;36;20122;-64
2021/10/14 05:39:59;;;;;;;120.47;41.15;;;;;;;11.86;100.00;102363.53;2604052;36;20056;-64
2021/10/14 05:42:28;;;;;;;122.93;44.58;;;;;;;11.85;100.00;102364.53;2602190;31;20133;-64
2021/10/14 05:44:56;;;;;;;112.80;40.27;;;;;;;11.86;100.00;102363.53;2603746;36;20061;-64
2021/10/14 05:47:24;;;;;;;123.72;42.83;;;;;;;11.86;100.00;102371.63;2603025;36;20606;-65
2021/10/14 05:49:53;;;;;;;127.38;45.03;;;;;;;11.83;100.00;102369.13;2601740;36;20114;-64
2021/10/14 05:52:23;;;;;;;120.38;43.55;;;;;;;11.87;100.00;102377.91;2603247;31;20130;-65
2021/10/14 05:54:52;;;;;;;127.28;45.60;;;;;;;11.84;100.00;102373.56;2601223;31;20034;-65
2021/10/14 05:57:20;;;;;;;133.52;46.63;;;;;;;11.88;100.00;102366.13;2600641;36;20030;-65
2021/10/14 06:02:28;;;;;;;121.28;46.03;;;;;;;11.82;100.00;102372.81;2602794;36;20041;-65
2021/10/14 06:07:38;;;;;;;118.95;43.75;;;;;;;11.82;100.00;102375.53;2605483;54;20037;-64
2021/10/14 06:10:08;;;;;;;118.47;45.28;;;;;;;11.85;100.00;102379.81;2601948;31;20035;-65
2021/10/14 06:12:37;;;;;;;115.03;44.33;;;;;;;11.88;100.00;102374.22;2601917;31;20054;-65
2021/10/14 06:15:07;;;;;;;108.40;42.80;;;;;;;11.87;100.00;102365.25;2604861;36;20671;-65
2021/10/14 06:17:35;;;;;;;;;;;;;;;11.91;100.00;102363.19;2606919;36;20542;-64
2021/10/14 06:20:03;;;;;;;118.15;43.85;;;;;;;11.87;100.00;102365.25;2614352;31;20050;-65
2021/10/14 06:22:32;;;;;;;117.70;44.38;;;;;;;11.90;100.00;102356.94;2614053;36;20114;-64
2021/10/14 06:25:02;;;;;;;115.15;43.72;;;;;;;11.87;100.00;102373.34;2613864;36;20054;-65
2021/10/14 06:27:31;;;;;;;115.55;43.42;;;;;;;11.88;100.00;102366.13;2611998;36;20122;-64
2021/10/14 06:29:59;;;;;;;122.40;44.47;;;;;;;11.91;100.00;102358.69;2613874;36;20083;-64
2021/10/14 06:32:27;;;;;;;114.45;43.13;;;;;;;11.89;100.00;102355.22;2608129;36;20489;-65
2021/10/14 06:34:56;;;;;;;108.95;43.65;;;;;;;11.92;100.00;102356.84;2613026;36;20052;-64
2021/10/14 06:37:24;;;;;;;102.60;39.55;;;;;;;11.96;100.00;102361.09;2614788;36;20141;-65
2021/10/14 06:39:53;;;;;;;108.63;43.90;;;;;;;11.93;100.00;102364.00;2615251;36;20134;-64
2021/10/14 06:42:23;;;;;;;109.78;42.50;;;;;;;11.92;100.00;102357.72;2613970;36;20130;-65
2021/10/14 06:44:51;;;;;;;107.63;41.72;;;;;;;11.95;100.00;102355.81;2615039;36;20181;-65
2021/10/14 06:47:20;;;;;;;101.15;40.80;;;;;;;11.97;100.00;102351.16;2614691;36;20141;-65
2021/10/14 06:52:22;;;;;;;99.22;39.80;;;;;;;11.99;100.00;102351.91;2613740;36;20056;-66
2021/10/14 06:54:51;;;;;;;94.78;40.60;;;;;;;11.99;100.00;102355.47;2614336;36;20173;-64
2021/10/14 06:57:19;;;;;;;100.53;41.40;;;;;;;12.00;100.00;102345.53;2613965;36;20034;-65
2021/10/14 06:59:50;;;;;;;86.60;38.05;;;;;;;12.03;100.00;102350.72;2614943;31;20133;-65
2021/10/14 07:02:18;;;;;;;98.78;37.65;;;;;;;12.05;100.00;102348.78;2613933;36;20121;-65
2021/10/14 07:04:46;;;;;;;89.55;35.42;;;;;;;12.05;100.00;102348.78;2614072;36;20066;-64
2021/10/14 07:07:14;;;;;;;84.63;37.72;;;;;;;12.07;100.00;102352.22;2613189;36;20118;-64
2021/10/14 07:09:57;;;;;;;82.45;36.70;;;;;;;12.10;100.00;102352.00;2614114;36;20069;-65
2021/10/14 07:12:28;;;;;;;74.00;33.28;;;;;;;12.06;100.00;102350.50;2614074;36;20698;-65
2021/10/14 07:14:59;;;;;;;69.03;33.22;;;;;;;12.08;100.00;102344.00;2614385;36;20038;-65
2021/10/14 07:17:28;;;;;;;75.68;34.53;;;;;;;12.11;100.00;102347.47;2613859;36;20023;-64
2021/10/14 07:19:56;;;;;;;80.20;33.25;;;;;;;12.14;100.00;102342.72;2614635;36;20145;-64
2021/10/14 07:22:24;;;;;;;80.68;33.22;;;;;;;12.16;100.00;102346.19;2614597;36;20162;-65
2021/10/14 07:24:52;;;;;;;77.50;33.38;;;;;;;12.16;100.00;102351.59;2615137;36;20142;-65
2021/10/14 07:27:21;;;;;;;69.97;32.05;;;;;;;12.17;100.00;102342.50;2614358;31;20065;-65
2021/10/14 07:29:49;;;;;;;64.55;29.65;;;;;;;12.17;100.00;102352.44;2614347;36;20165;-64
2021/10/14 07:32:20;;;;;;;66.20;30.55;;;;;;;12.19;100.00;102356.75;2614868;36;20145;-65
2021/10/14 07:34:48;;;;;;;68.78;29.80;;;;;;;12.19;100.00;102345.97;2615643;36;20125;-65
2021/10/14 07:37:19;;;;;;;64.20;29.30;;;;;;;12.20;100.00;102346.81;2615646;36;20193;-64
2021/10/14 07:39:47;;;;;;;64.90;30.00;;;;;;;12.19;100.00;102337.88;2614834;36;20299;-64
2021/10/14 07:42:15;;;;;;;54.38;28.23;;;;;;;12.19;100.00;102348.66;2615047;36;20030;-64
2021/10/14 07:44:44;;;;;;;62.55;29.70;;;;;;;12.21;100.00;102343.16;2614489;36;20552;-65
2021/10/14 07:47:12;;;;;;;55.05;27.48;;;;;;;12.22;100.00;102353.84;2614493;36;20038;-64
2021/10/14 07:49:43;;;;;;;57.10;27.42;;;;;;;12.23;100.00;102349.28;2614649;36;20034;-64
2021/10/14 07:52:11;;;;;;;52.88;28.30;;;;;;;12.31;100.00;102348.72;2614685;36;20030;-65
2021/10/14 07:54:39;;;;;;;52.92;27.17;;;;;;;12.30;100.00;102347.03;2615450;31;20129;-65
2021/10/14 07:57:08;;;;;;;54.00;28.45;;;;;;;12.28;100.00;102352.53;2615088;36;20134;-65
2021/10/14 07:59:36;;;;;;;55.58;27.55;;;;;;;12.26;100.00;102346.38;2614366;36;20034;-64
2021/10/14 08:02:04;;;;;;;56.75;28.70;;;;;;;12.29;100.00;102348.84;2614108;36;20122;-65
2021/10/14 08:04:32;;;;;;;61.58;27.90;;;;;;;12.26;100.00;102347.25;2615069;36;20507;-65
2021/10/14 08:07:03;;;;;;;58.47;29.27;;;;;;;12.30;100.00;102355.97;2615003;36;20065;-65
2021/10/14 08:09:31;;;;;;;50.75;28.15;;;;;;;12.33;100.00;102353.06;2615717;36;20451;-64
2021/10/14 08:11:59;;;;;;;55.90;27.55;;;;;;;12.43;100.00;102361.34;2614092;36;20626;-65
2021/10/14 08:14:28;;;;;;;55.83;27.35;;;;;;;12.45;100.00;102356.69;2614079;36;20038;-65
2021/10/14 08:16:56;;;;;;;58.53;28.25;;;;;;;12.47;100.00;102349.38;2613809;36;20153;-65
2021/10/14 08:19:25;;;;;;;49.77;27.63;;;;;;;12.52;100.00;102347.19;2614952;36;20156;-65
2021/10/14 08:21:53;;;;;;;55.70;28.00;;;;;;;12.66;100.00;102353.41;2615432;36;20036;-65
2021/10/14 08:24:24;;;;;;;49.50;26.50;;;;;;;12.66;100.00;102348.00;2614303;36;20122;-65
2021/10/14 08:26:53;;;;;;;47.75;25.83;;;;;;;12.66;100.00;102346.19;2614590;36;20555;-65
2021/10/14 08:29:21;;;;;;;50.53;26.83;;;;;;;12.72;100.00;102347.53;2614244;36;20030;-64
2021/10/14 08:31:49;;;;;;;53.85;26.58;;;;;;;12.78;100.00;102345.25;2614290;36;20118;-65
2021/10/14 08:34:17;;;;;;;50.50;25.55;;;;;;;12.82;100.00;102345.88;2614891;36;20117;-65
2021/10/14 08:36:46;;;;;;;40.33;23.65;;;;;;;12.84;100.00;102351.16;2614344;36;20113;-64
2021/10/14 08:39:14;;;;;;;48.08;25.08;;;;;;;12.92;100.00;102354.16;2615236;36;20023;-65
2021/10/14 08:41:46;;;;;;;41.65;24.48;;;;;;;13.03;100.00;102348.84;2615506;36;20181;-64
2021/10/14 08:44:19;;;;;;;40.17;21.67;;;;;;;13.05;100.00;102348.72;2615328;36;20403;-64
2021/10/14 08:46:48;;;;;;;41.28;22.35;;;;;;;13.17;100.00;102342.38;2614094;36;20130;-64
2021/10/14 08:49:17;;;;;;;36.10;20.57;;;;;;;13.19;100.00;102339.53;2614468;36;20142;-64
2021/10/14 08:51:45;;;;;;;35.05;20.02;;;;;;;13.24;100.00;102342.78;2614693;36;20030;-64
2021/10/14 08:54:13;;;;;;;34.25;19.45;;;;;;;13.31;100.00;102331.38;2613963;31;20117;-65
2021/10/14 08:56:48;;;;;;;35.28;19.25;;;;;;;13.35;100.00;102336.56;2614664;36;20161;-64
2021/10/14 08:59:19;;;;;;;34.00;19.33;;;;;;;13.46;100.00;102339.31;2613808;36;20064;-64
2021/10/14 09:02:07;;;;;;;28.58;17.95;;;;;;;13.53;100.00;102332.44;2613813;36;20035;-64
2021/10/14 09:04:38;;;;;;;28.38;17.83;;;;;;;13.54;100.00;102336.00;2615271;36;20463;-64
2021/10/14 09:07:11;;;;;;;30.70;18.63;;;;;;;13.55;100.00;102330.47;2614687;36;20190;-64
2021/10/14 09:09:40;;;;;;;28.02;18.15;;;;;;;13.53;100.00;102329.75;2612615;54;20041;-64
2021/10/14 09:12:13;;;;;;;26.60;17.95;;;;;;;13.72;100.00;102341.81;2613795;36;20535;-64
2021/10/14 09:14:55;;;;;;;28.98;17.63;;;;;;;13.80;100.00;102331.25;2613573;36;20657;-64
2021/10/14 09:17:44;;;;;;;31.27;18.55;;;;;;;13.90;100.00;102329.56;2614835;36;20050;-64
2021/10/14 09:20:37;;;;;;;30.30;17.48;;;;;;;14.01;100.00;102317.84;2615074;36;20512;-64
2021/10/14 09:23:09;;;;;;;27.15;15.43;;;;;;;13.99;100.00;102315.28;2615240;36;20038;-64
2021/10/14 09:25:40;;;;;;;31.95;15.20;;;;;;;14.06;100.00;102315.66;2615285;36;20034;-64
2021/10/14 09:28:19;;;;;;;25.85;14.98;;;;;;;14.15;100.00;102316.75;2614458;36;20057;-64
2021/10/14 09:30:53;;;;;;;24.30;15.40;;;;;;;14.39;100.00;102307.63;2613998;36;20030;-64
2021/10/14 09:33:43;;;;;;;22.02;15.15;;;;;;;14.21;100.00;102302.72;2612936;31;20042;-64
2021/10/14 09:36:19;;;;;;;29.15;14.73;;;;;;;14.00;100.00;102308.88;2613411;36;20488;-64
2021/10/14 09:38:49;;;;;;;22.10;13.88;;;;;;;13.93;100.00;102310.34;2614153;36;20038;-64
2021/10/14 09:41:20;;;;;;;26.50;14.55;;;;;;;13.85;100.00;102312.81;2614507;31;20093;-64
2021/10/14 09:43:54;;;;;;;22.83;15.00;;;;;;;14.06;100.00;102303.94;2614782;36;20953;-64
2021/10/14 09:46:39;;;;;;;24.02;15.85;;;;;;;14.04;100.00;102300.50;2614590;36;20035;-64
2021/10/14 09:49:09;;;;;;;27.30;13.15;;;;;;;14.28;100.00;102306.66;2615170;36;20427;-64
2021/10/14 09:51:39;;;;;;;21.88;13.82;;;;;;;14.32;100.00;102296.41;2614638;36;20177;-64
2021/10/14 09:56:47;;;;;;;23.48;13.50;;;;;;;14.63;100.00;102291.22;2615239;36;20053;-64
2021/10/14 09:59:18;;;;;;;21.00;12.70;;;;;;;14.64;100.00;102298.38;2614291;36;20646;-64
2021/10/14 10:01:48;;;;;;;24.05;12.80;;;;;;;14.65;100.00;102286.50;2614727;36;20030;-63
2021/10/14 10:04:17;;;;;;;17.63;11.13;;;;;;;14.79;100.00;102291.66;2615118;36;20034;-64
2021/10/14 10:06:49;;;;;;;;;;;;;;;15.03;100.00;102275.19;2614664;36;20023;-63
2021/10/14 10:09:18;;;;;;;16.38;10.18;;;;;;;14.88;100.00;102265.63;2614726;36;20045;-63
2021/10/14 10:11:49;;;;;;;19.98;11.55;;;;;;;14.89;100.00;102270.06;2614027;36;20061;-63
2021/10/14 10:14:22;;;;;;;17.80;9.38;;;;;;;14.71;100.00;102262.50;2612955;36;20118;-64
2021/10/14 10:16:58;;;;;;;76.78;15.82;;;;;;;14.61;100.00;102266.06;2613404;36;20628;-64
2021/10/14 10:19:46;;;;;;;15.32;8.35;;;;;;;14.62;100.00;102263.28;2614002;36;20114;-63
2021/10/14 10:22:50;;;;;;;11.35;7.10;;;;;;;14.62;100.00;102268.69;2614010;36;20030;-64
2021/10/14 10:25:37;;;;;;;10.85;6.97;;;;;;;14.76;100.00;102270.22;2614295;36;20158;-63
2021/10/14 10:28:06;;;;;;;8.85;5.50;;;;;;;15.11;100.00;102260.09;2615947;36;20038;-64
2021/10/14 10:30:40;;;;;;;9.63;4.72;;;;;;;15.14;100.00;102265.25;2615670;36;20125;-64
2021/10/14 10:33:10;;;;;;;8.25;4.57;;;;;;;15.18;100.00;102261.28;2614641;36;20046;-63
2021/10/14 10:35:44;;;;;;;7.60;4.72;;;;;;;15.28;100.00;102256.78;2616109;36;20138;-64
2021/10/14 10:38:17;;;;;;;6.18;4.07;;;;;;;15.20;100.00;102259.31;2615218;36;20438;-64
2021/10/14 10:40:47;;;;;;;8.32;3.50;;;;;;;15.15;100.00;102264.25;2616359;31;20529;-64
2021/10/14 10:43:20;;;;;;;6.45;3.20;;;;;;;15.08;100.00;102253.09;2615373;36;20046;-64
2021/10/14 10:45:52;;;;;;;6.65;3.72;;;;;;;15.01;100.00;102255.44;2615607;36;20569;-64
2021/10/14 10:48:26;;;;;;;6.05;3.60;;;;;;;14.97;100.00;102247.72;2614993;36;20281;-64
2021/10/14 10:50:57;;;;;;;6.80;3.65;;;;;;;15.22;100.00;102254.59;2615756;36;20037;-63
2021/10/14 10:53:38;;;;;;;6.55;3.60;;;;;;;15.29;100.00;102244.94;2615369;36;20050;-64
2021/10/14 10:56:07;;;;;;;10.48;3.78;;;;;;;15.29;100.00;102242.22;2615187;36;20133;-64
2021/10/14 10:58:48;;;;;;;6.38;3.67;;;;;;;15.36;100.00;102254.25;2614488;36;20169;-64
2021/10/14 11:01:21;;;;;;;7.30;4.05;;;;;;;15.40;100.00;102244.03;2614627;36;20581;-64
2021/10/14 11:03:55;;;;;;;6.18;3.45;;;;;;;15.47;100.00;102238.91;2615432;36;20031;-63
2021/10/14 11:06:24;;;;;;;4.80;3.60;;;;;;;15.56;100.00;102233.53;2615558;31;20034;-64
2021/10/14 11:08:53;;;;;;;7.45;3.28;;;;;;;15.77;100.00;102225.34;2614888;36;20053;-64
2021/10/14 11:11:23;;;;;;;7.18;3.30;;;;;;;15.74;100.00;102233.75;2614231;36;20521;-64
2021/10/14 11:13:53;;;;;;;6.35;3.28;;;;;;;15.69;100.00;102230.56;2613544;36;20134;-63
2021/10/14 11:16:27;;;;;;;5.88;2.88;;;;;;;15.64;100.00;102224.72;2613625;36;20066;-64
2021/10/14 11:18:57;;;;;;;7.60;2.92;;;;;;;15.73;100.00;102228.47;2614491;36;20562;-63
2021/10/14 11:21:28;;;;;;;3.20;2.60;;;;;;;15.57;100.00;102227.09;2614463;36;20023;-63
2021/10/14 11:23:58;;;;;;;6.10;2.53;;;;;;;15.74;100.00;102219.34;2614740;36;20049;-63
2021/10/14 11:26:31;;;;;;;5.13;2.70;;;;;;;15.91;100.00;102223.28;2614555;36;20061;-63
2021/10/14 11:29:02;;;;;;;4.60;2.72;;;;;;;16.01;100.00;102207.88;2614360;36;20034;-64
2021/10/14 11:31:36;;;;;;;4.30;2.60;;;;;;;16.13;100.00;102203.19;2614705;36;20065;-64
2021/10/14 11:34:15;;;;;;;3.58;2.33;;;;;;;15.74;100.00;102213.91;2614638;36;20038;-64
2021/10/14 11:36:50;;;;;;;;;;;;;;;15.34;100.00;102202.00;2615587;31;20572;-64
2021/10/14 11:39:19;;;;;;;5.25;2.60;;;;;;;15.13;100.00;102215.56;2614360;36;19939;-63
2021/10/14 11:41:55;;;;;;;3.80;2.17;;;;;;;15.06;100.00;102206.25;2614609;36;20126;-64
2021/10/14 11:44:27;;;;;;;3.22;2.10;;;;;;;14.84;100.00;102210.81;2613635;36;20662;-63
2021/10/14 11:46:59;;;;;;;5.95;2.33;;;;;;;14.96;100.00;102208.91;2614511;36;20547;-65
2021/10/14 11:49:31;;;;;;;7.35;2.70;;;;;;;14.67;100.00;102214.09;2614429;36;20837;-65
2021/10/14 11:52:02;;;;;;;4.68;2.20;;;;;;;14.94;100.00;102204.59;2614886;36;20068;-65
2021/10/14 11:54:32;;;;;;;5.90;2.33;;;;;;;15.15;100.00;102194.63;2614401;31;20042;-64
2021/10/14 11:57:01;;;;;;;5.78;2.67;;;;;;;15.10;100.00;102198.72;2615320;36;20065;-63
2021/10/14 11:59:30;;;;;;;7.65;2.53;;;;;;;15.09;100.00;102188.84;2613565;36;20041;-63
2021/10/14 12:02:05;;;;;;;3.53;2.20;;;;;;;14.98;100.00;102201.50;2615351;31;20522;-63
2021/10/14 12:04:38;;;;;;;7.60;2.70;;;;;;;15.11;100.00;102195.88;2613961;36;20034;-63
2021/10/14 12:07:07;;;;;;;11.68;2.83;;;;;;;15.10;100.00;102187.88;2613853;36;20081;-64
2021/10/14 12:09:36;;;;;;;12.73;2.55;;;;;;;15.14;100.00;102186.63;2612270;36;20054;-63
2021/10/14 12:12:06;;;;;;;7.88;3.22;;;;;;;15.27;100.00;102181.84;2614320;36;20530;-64
2021/10/14 12:14:36;;;;;;;6.32;2.38;;;;;;;15.28;100.00;102172.69;2613710;36;20057;-64
2021/10/14 12:17:12;;;;;;;7.15;2.30;;;;;;;15.56;100.00;102172.97;2614155;36;20034;-64
2021/10/14 12:19:44;;;;;;;5.13;2.10;;;;;;;15.44;100.00;102174.06;2614586;31;20073;-63
2021/10/14 12:22:14;;;;;;;5.18;2.40;;;;;;;15.53;100.00;102162.38;2613790;36;20037;-63
2021/10/14 12:25:00;;;;;;;7.68;2.30;;;;;;;15.39;100.00;102164.47;2613906;36;20058;-63
2021/10/14 12:27:44;;;;;;;4.93;2.25;;;;;;;15.69;100.00;102167.31;2613997;31;20560;-63
2021/10/14 12:30:25;;;;;;;4.38;2.05;;;;;;;15.77;100.00;102159.34;2613605;36;20126;-64
2021/10/14 12:32:57;;;;;;;5.03;2.20;;;;;;;15.63;100.00;102152.41;2614068;36;20586;-63
2021/10/14 12:35:28;;;;;;;6.22;2.50;;;;;;;15.71;100.00;102159.91;2614737;36;20114;-63
2021/10/14 12:38:07;;;;;;;6.10;2.30;;;;;;;15.44;100.00;102157.78;2614880;36;20608;-63
2021/10/14 12:40:42;;;;;;;3.95;1.80;;;;;;;15.33;100.00;102143.31;2614327;31;20125;-63
2021/10/14 12:43:16;;;;;;;2.90;1.70;;;;;;;15.61;100.00;102149.00;2614357;36;20069;-63
2021/10/14 12:48:48;;;;;;;3.75;1.67;;;;;;;15.61;100.00;102137.28;2613097;36;20042;-64
2021/10/14 12:51:21;;;;;;;4.80;2.00;;;;;;;15.59;100.00;102134.69;2614338;36;20065;-63
2021/10/14 12:53:51;;;;;;;4.28;1.85;;;;;;;15.58;100.00;102135.72;2614073;36;20030;-64
2021/10/14 12:56:20;;;;;;;4.07;1.70;;;;;;;15.80;100.00;102136.50;2613618;36;20118;-63
2021/10/14 12:58:50;;;;;;;3.72;1.85;;;;;;;15.70;100.00;102129.16;2613859;36;20141;-63
2021/10/14 13:01:20;;;;;;;3.40;1.73;;;;;;;15.96;100.00;102125.09;2614706;36;20124;-63
2021/10/14 13:03:52;;;;;;;6.43;2.00;;;;;;;15.99;100.00;102124.81;2614269;36;20126;-64
2021/10/14 13:06:20;;;;;;;4.90;2.00;;;;;;;15.70;100.00;102121.03;2614416;31;20370;-63
2021/10/14 13:08:48;;;;;;;7.32;2.28;;;;;;;15.34;100.00;102120.63;2613631;36;20118;-63
2021/10/14 13:11:19;;;;;;;7.67;2.00;;;;;;;15.34;100.00;102119.75;2613870;36;20030;-64
2021/10/14 13:13:47;;;;;;;7.63;2.03;;;;;;;15.36;100.00;102117.78;2614131;36;20158;-63
2021/10/14 13:16:16;;;;;;;3.85;1.80;;;;;;;15.57;100.00;102114.97;2613316;36;20149;-63
2021/10/14 13:18:44;;;;;;;3.22;1.88;;;;;;;15.66;100.00;102118.72;2614242;31;20130;-63
2021/10/14 13:21:15;;;;;;;6.38;1.83;;;;;;;15.69;100.00;102116.56;2614054;31;20118;-64
2021/10/14 13:23:44;;;;;;;6.00;1.90;;;;;;;15.58;100.00;102116.72;2614167;31;20134;-63
2021/10/14 13:26:12;;;;;;;4.35;1.90;;;;;;;15.58;100.00;102109.41;2613925;36;20145;-63
2021/10/14 13:28:41;;;;;;;5.07;1.98;;;;;;;15.59;100.00;102108.44;2613516;36;20041;-64
2021/10/14 13:31:11;;;;;;;4.88;2.00;;;;;;;15.52;100.00;102106.41;2613850;36;20057;-63
2021/10/14 13:33:40;;;;;;;5.32;2.00;;;;;;;15.61;100.00;102104.72;2614118;36;20555;-63
2021/10/14 13:36:12;;;;;;;8.13;1.85;;;;;;;15.70;100.00;102095.75;2614019;31;20033;-63
2021/10/14 13:38:44;;;;;;;4.05;1.83;;;;;;;15.63;100.00;102097.28;2613670;36;20065;-64
2021/10/14 13:41:15;;;;;;;2.83;2.08;;;;;;;15.69;100.00;102092.16;2614360;36;20057;-63
2021/10/14 13:43:46;;;;;;;3.92;2.28;;;;;;;15.72;100.00;102088.31;2614813;36;20041;-63
2021/10/14 13:46:15;;;;;;;3.00;1.77;;;;;;;15.97;100.00;102086.94;2614741;31;20385;-63
2021/10/14 13:48:43;;;;;;;4.73;2.27;;;;;;;15.75;100.00;102078.03;2614277;36;20873;-64
2021/10/14 13:51:11;;;;;;;6.25;1.98;;;;;;;15.75;100.00;102080.75;2614683;36;20168;-64
2021/10/14 13:53:42;;;;;;;3.07;1.83;;;;;;;15.84;100.00;102072.78;2614588;36;20054;-63
2021/10/14 13:56:11;;;;;;;4.57;2.10;;;;;;;15.76;100.00;102073.47;2613062;36;20122;-63
2021/10/14 13:58:39;;;;;;;5.35;1.88;;;;;;;15.66;100.00;102073.44;2614038;31;20056;-63
2021/10/14 14:01:08;;;;;;;3.73;2.00;;;;;;;15.62;100.00;102065.72;2613893;36;20153;-64
2021/10/14 14:03:36;;;;;;;6.25;1.75;;;;;;;15.79;100.00;102069.66;2614636;36;20037;-63
2021/10/14 14:06:05;;;;;;;2.05;1.50;;;;;;;16.05;100.00;102065.38;2614663;36;20122;-64
2021/10/14 14:08:33;;;;;;;4.03;1.70;;;;;;;16.18;100.00;102059.66;2615740;36;20634;-63
2021/10/14 14:11:04;;;;;;;4.18;1.83;;;;;;;16.28;100.00;102052.38;2615245;36;20545;-63
2021/10/14 14:13:32;;;;;;;2.88;1.70;;;;;;;16.14;100.00;102054.66;2615471;31;20506;-64
2021/10/14 14:16:00;;;;;;;3.23;1.53;;;;;;;15.89;100.00;102059.66;2615124;36;20030;-63
2021/10/14 14:18:28;;;;;;;4.28;1.85;;;;;;;15.87;100.00;102045.34;2614590;36;20069;-63
2021/10/14 14:20:57;;;;;;;2.10;1.60;;;;;;;15.80;100.00;102041.47;2614782;31;20031;-63
2021/10/14 14:23:25;;;;;;;2.97;1.90;;;;;;;15.76;100.00;102049.03;2615354;36;20166;-63
2021/10/14 14:25:53;;;;;;;5.70;1.92;;;;;;;15.86;100.00;102038.22;2615037;36;20410;-64
2021/10/14 14:28:24;;;;;;;3.40;1.80;;;;;;;15.80;100.00;102033.34;2614420;31;20519;-63
2021/10/14 14:30:52;;;;;;;3.35;1.77;;;;;;;15.80;100.00;102033.34;2614541;36;20038;-63
2021/10/14 14:33:21;;;;;;;4.75;1.70;;;;;;;15.82;100.00;102034.06;2613846;36;20141;-63
2021/10/14 14:35:49;;;;;;;3.90;2.00;;;;;;;15.85;100.00;102029.19;2614914;36;20039;-63
2021/10/14 14:38:17;;;;;;;3.25;1.60;;;;;;;15.96;100.00;102022.78;2613760;36;20058;-63
2021/10/14 14:40:45;;;;;;;3.73;1.60;;;;;;;16.06;100.00;102018.22;2614945;36;20173;-63
2021/10/14 14:43:13;;;;;;;3.57;1.63;;;;;;;15.91;100.00;102016.91;2613338;36;20045;-63
2021/10/14 14:45:45;;;;;;;2.80;1.85;;;;;;;15.91;100.00;102019.63;2614457;36;20129;-64
2021/10/14 14:48:13;;;;;;;4.03;1.80;;;;;;;15.71;100.00;102008.75;2614043;31;20023;-63
2021/10/14 14:50:45;;;;;;;3.70;2.05;;;;;;;15.53;100.00;102002.28;2614926;36;20034;-63
2021/10/14 14:53:15;;;;;;;4.65;2.08;;;;;;;15.66;100.00;102011.00;2615791;36;20455;-64
2021/10/14 14:55:43;;;;;;;7.22;2.00;;;;;;;15.53;100.00;102000.44;2615719;36;20031;-63
2021/10/14 14:58:12;;;;;;;3.13;1.95;;;;;;;15.57;100.00;102003.72;2615105;36;20563;-63
2021/10/14 15:00:42;;;;;;;2.45;1.55;;;;;;;15.69;100.00;102005.28;2615618;36;20034;-63
2021/10/14 15:03:13;;;;;;;3.92;2.15;;;;;;;15.52;100.00;102004.16;2615358;36;20125;-63
2021/10/14 15:05:42;;;;;;;2.95;1.80;;;;;;;15.51;100.00;102012.44;2614818;36;20030;-63
2021/10/14 15:08:10;;;;;;;3.67;2.22;;;;;;;15.46;100.00;102015.56;2613592;36;20444;-63
2021/10/14 15:10:41;;;;;;;3.22;1.90;;;;;;;15.28;100.00;102007.22;2613430;36;20674;-64
2021/10/14 15:13:09;;;;;;;2.80;2.00;;;;;;;15.27;100.00;102005.53;2613769;36;20153;-63
2021/10/14 15:15:39;;;;;;;3.65;1.88;;;;;;;15.26;100.00;102001.09;2613878;36;20141;-63
2021/10/14 15:18:08;;;;;;;4.68;2.05;;;;;;;15.28;100.00;102003.66;2614710;36;20030;-64
2021/10/14 15:20:40;;;;;;;2.67;1.67;;;;;;;15.15;100.00;102002.06;2615035;36;20102;-63
2021/10/14 15:23:09;;;;;;;3.38;1.90;;;;;;;14.97;100.00;101998.28;2614775;36;20130;-63
2021/10/14 15:25:37;;;;;;;4.43;1.77;;;;;;;14.85;100.00;101995.66;2615467;36;20061;-63
2021/10/14 15:28:06;;;;;;;2.95;1.83;;;;;;;14.81;100.00;101993.38;2615007;36;20777;-63
2021/10/14 15:30:37;;;;;;;7.68;2.35;;;;;;;14.77;100.00;101992.81;2615000;36;20744;-63
2021/10/14 15:33:06;;;;;;;3.20;2.28;;;;;;;14.74;100.00;101986.78;2613741;36;20038;-64
2021/10/14 15:35:35;;;;;;;4.40;1.88;;;;;;;14.68;100.00;101986.34;2614275;36;20031;-63
2021/10/14 15:38:07;;;;;;;5.90;3.10;;;;;;;14.65;100.00;101983.91;2615093;36;20042;-63
2021/10/14 15:40:35;;;;;;;3.40;2.20;;;;;;;14.62;100.00;101984.19;2614825;31;20031;-64
2021/10/14 15:43:06;;;;;;;3.10;1.90;;;;;;;14.64;100.00;101975.91;2613914;36;20030;-63
2021/10/14 15:45:34;;;;;;;3.40;2.10;;;;;;;14.62;100.00;101984.19;2614897;36;20061;-63
2021/10/14 15:48:04;;;;;;;5.00;2.03;;;;;;;14.56;100.00;101979.28;2614036;36;20058;-63
2021/10/14 15:50:33;;;;;;;3.65;2.40;;;;;;;14.53;100.00;101984.94;2613627;31;20037;-63
2021/10/14 15:53:01;;;;;;;5.57;2.37;;;;;;;14.51;100.00;101981.50;2615632;36;20034;-63
2021/10/14 15:55:32;;;;;;;4.75;2.53;;;;;;;14.41;100.00;101978.75;2614794;36;20398;-63
2021/10/14 15:58:01;;;;;;;6.95;3.10;;;;;;;14.40;100.00;101981.59;2613823;36;20141;-64
2021/10/14 16:00:29;;;;;;;5.75;3.40;;;;;;;14.36;100.00;101968.31;2613549;36;20161;-63
2021/10/14 16:02:57;;;;;;;6.65;2.85;;;;;;;14.36;100.00;101964.75;2614358;31;20149;-63
2021/10/14 16:05:25;;;;;;;6.63;3.00;;;;;;;14.37;100.00;101975.47;2613704;36;20114;-63
2021/10/14 16:07:53;;;;;;;5.40;3.45;;;;;;;14.37;100.00;101963.78;2614400;36;20134;-63
2021/10/14 16:10:21;;;;;;;4.05;3.30;;;;;;;14.31;100.00;101965.16;2613991;36;20133;-62
2021/10/14 16:12:52;;;;;;;5.22;3.05;;;;;;;14.33;100.00;101965.88;2614594;31;20125;-63
2021/10/14 16:15:21;;;;;;;4.80;3.33;;;;;;;14.30;100.00;101958.03;2613928;36;20605;-64
2021/10/14 16:17:49;;;;;;;6.13;4.07;;;;;;;14.29;100.00;101956.28;2613166;36;20130;-64
2021/10/14 16:20:17;;;;;;;6.82;3.88;;;;;;;14.24;100.00;101953.16;2614469;36;20638;-64